Metar Cercanos

 

LEPA - Palma De Mallorc, Spain
Distance from station: ONO 38km
Actualización: Sat, 25-Sep-2021 11:30pm CEST
Few Clouds
Few Clouds
 Viento del varies
Viento: varies 4 km/h
Temperatura: 26°C
Rocío: 23°C
Humedad: 84%
Barómetro: 1018 hPa
Clouds: Few Clouds
Visibility: 10 km
Cloud details: Few Clouds 274 m
2021/09/25 21:30 LEPA 252130Z VRB02KT 9999 FEW009 26/23 Q1018 NOSIG
LEMH - Mahon/Menorca Is, Spain
Distance from station: ENE 105km
Actualización: Sat, 25-Sep-2021 11:30pm CEST
Parcialmente nuboso
Parcialmente nuboso
 Viento del NE
Viento: NE 7 km/h
Temperatura: 25°C
Rocío: 23°C
Humedad: 89%
Barómetro: 1018 hPa
Clouds: Parcialmente nuboso
Visibility: 8 km
Cloud details: Few Clouds 274 m
Parcialmente nuboso 762 m
2021/09/25 21:30 LEMH 252130Z 05004KT 8000 FEW009 SCT025 25/23 Q1018
 
LEIB - Ibiza/Es Codola, Spain
Distance from station: OSO 165km
Actualización: Sat, 25-Sep-2021 11:30pm CEST
Few Clouds
Few Clouds
 Viento del calm
Viento: Calma
Temperatura: 23°C
Rocío: 21°C
Humedad: 89%
Barómetro: 1017 hPa
Clouds: Few Clouds
Visibility: 10 km
Cloud details: Few Clouds 457 m
2021/09/25 21:30 LEIB 252130Z 00000KT 9999 FEW015 23/21 Q1017 NOSIG
LEBL - Barcelona Airpor, Spain
Distance from station: NNO 225km
Actualización: Sat, 25-Sep-2021 11:30pm CEST
Few Clouds
Few Clouds
 Viento del O
Viento: O 7 km/h
Temperatura: 23°C
Rocío: 21°C
Humedad: 89%
Barómetro: 1016 hPa
Clouds: Few Clouds
Visibility: 10 km
Cloud details: Few Clouds 366 m
2021/09/25 21:30 LEBL 252130Z 28004KT 9999 FEW012 23/21 Q1016 NOSIG
 
LEVC - Valencia (civ/Mi, Spain
Distance from station: NO 188km
Actualización: Sat, 25-Sep-2021 11:30pm CEST
Parcialmente nuboso
Parcialmente nuboso
 Viento del NO
Viento: NO 13 km/h
Temperatura: 21°C
Rocío: 19°C
Humedad: 88%
Barómetro: 1018 hPa
Clouds: Parcialmente nuboso
Visibility: 10 km
Cloud details: Parcialmente nuboso 488 m
2021/09/25 21:30 LEVC 252130Z 31007KT 9999 SCT016 21/19 Q1018 NOSIG
LEGE - Gerona/Costa Bra, Spain
Distance from station: N 276km
Actualización: Sat, 25-Sep-2021 11:51pm CEST
Mist, Few clouds
Mist, Few clouds
 Viento del varies
Viento: varies 4 km/h
Temperatura: 21°C
Rocío: 20°C
Humedad: 94%
Barómetro: 1016 hPa
Resumen: Mist
Clouds: Few Clouds
Visibility: 4 km
Cloud details: Few Clouds 762 m
2021/09/25 21:51 LEGE 252151Z VRB02KT 4000 BR FEW025 21/20 Q1016
 
LEAL - Alicante/El Alte, Spain
Distance from station: OSO 344km
Actualización: Sat, 25-Sep-2021 11:30pm CEST
Muy nuboso
Muy nuboso
 Viento del S
Viento: S 9 km/h
Temperatura: 25°C
Rocío: 23°C
Humedad: 89%
Barómetro: 1018 hPa
Clouds: Muy nuboso
Visibility: 10 km
Cloud details: Few Clouds 244 m
Muy nuboso 1676 m
2021/09/25 21:30 LEAL 252130Z 17005KT 140V200 9999 FEW008 BKN055 25/23 Q1018 NOSIG
LEAM - Almeria Airport, Spain
Distance from station: SSO 56km
Actualización: Sat, 25-Sep-2021 11:30pm CEST
Despejado
Despejado
 Viento del OSO
Viento: OSO 22 km/h
Temperatura: 23°C
Rocío: 20°C
Humedad: 83%
Barómetro: 1018 hPa
Resumen: Despejado
Visibility: greater than 10 km
2021/09/25 21:30 LEAM 252130Z AUTO 24012KT CAVOK 23/20 Q1018
 
LEZG - Zaragoza (mil/Ci, Spain
Distance from station: NO 431km
Actualización: Sat, 25-Sep-2021 11:30pm CEST
Few Clouds
Few Clouds
 Viento del ENE
Viento: ENE 7 km/h
Temperatura: 21°C
Rocío: 12°C
Humedad: 57%
Barómetro: 1018 hPa
Clouds: Few Clouds
Visibility: 10 km
Cloud details: Few Clouds 2591 m
2021/09/25 21:30 LEZG 252130Z 06004KT 040V110 9999 FEW085 21/12 Q1018
LEMD - Madrid/Barajas, Spain
Distance from station: ONO 234km
Actualización: Sat, 25-Sep-2021 11:30pm CEST
Despejado
Despejado
 Viento del O
Viento: O 9 km/h
Temperatura: 18°C
Rocío: 12°C
Humedad: 68%
Barómetro: 1021 hPa
Resumen: Despejado
Visibility: greater than 10 km
2021/09/25 21:30 LEMD 252130Z 26005KT CAVOK 18/12 Q1021 NOSIG
 
LEGR - Granada Airport, Spain
Distance from station: OSO 62km
Actualización: Sat, 25-Sep-2021 11:30pm CEST
Despejado
Despejado
 Viento del SSO
Viento: SSO 6 km/h
Temperatura: 18°C
Rocío: 12°C
Humedad: 68%
Barómetro: 1022 hPa
Resumen: Despejado
Visibility: greater than 10 km
2021/09/25 21:30 LEGR 252130Z AUTO 21003KT CAVOK 18/12 Q1022
LEMG - Malaga (civ/Mil), Spain
Distance from station: OSO 227km
Actualización: Sat, 25-Sep-2021 11:30pm CEST
Despejado
Despejado
 Viento del O
Viento: O 15 km/h
Temperatura: 25°C
Rocío: 15°C
Humedad: 54%
Barómetro: 1018 hPa
Resumen: Despejado
Visibility: greater than 10 km
2021/09/25 21:30 LEMG 252130Z 27008KT CAVOK 25/15 Q1018 NOSIG
 
LEZL - Sevilla (civ/Mil, Spain
Distance from station: S 318km
Actualización: Sat, 25-Sep-2021 11:30pm CEST
Despejado
Despejado
 Viento del O
Viento: O 7 km/h
Temperatura: 21°C
Rocío: 16°C
Humedad: 73%
Barómetro: 1020 hPa
Resumen: Despejado
Visibility: greater than 10 km
2021/09/25 21:30 LEZL 252130Z 27004KT CAVOK 21/16 Q1020 NOSIG
LEVT - Vitoria, Spain
Distance from station: NO 226km
Actualización: Sat, 25-Sep-2021 11:30pm CEST
Parcialmente nuboso
Parcialmente nuboso
 Viento del SO
Viento: SO 11 km/h
Temperatura: 15°C
Rocío: 12°C
Humedad: 82%
Barómetro: 1019 hPa
Clouds: Parcialmente nuboso
Visibility: 10 km
Cloud details: Parcialmente nuboso 2134 m
2021/09/25 21:30 LEVT 252130Z 22006KT 170V280 9999 SCT070 15/12 Q1019
 
LEBB - Bilbao/Sondica, Spain
Distance from station: NNO 235km
Actualización: Sat, 25-Sep-2021 11:30pm CEST
Despejado
Despejado
 Viento del ESE
Viento: ESE 9 km/h
Temperatura: 17°C
Rocío: 15°C
Humedad: 88%
Barómetro: 1017 hPa
Resumen: Despejado
Visibility: greater than 10 km
2021/09/25 21:30 LEBB 252130Z 11005KT 070V140 CAVOK 17/15 Q1017 NOSIG
LESO - San Sebastian/Fu, Spain
Distance from station: N 231km
Actualización: Sat, 25-Sep-2021 11:30pm CEST
Despejado
Despejado
 Viento del SE
Viento: SE 7 km/h
Temperatura: 20°C
Rocío: 17°C
Humedad: 83%
Barómetro: 1016 hPa
Resumen: Despejado
Visibility: greater than 10 km
2021/09/25 21:30 LESO 252130Z AUTO 13004KT 090V160 CAVOK 20/17 Q1016
 
LEVD - Valladolid(Mil/C, Spain
Distance from station: ONO 239km
Actualización: Sat, 25-Sep-2021 11:30pm CEST
Muy nuboso
Muy nuboso
 Viento del SO
Viento: SO 11 km/h
Temperatura: 13°C
Rocío: 12°C
Humedad: 94%
Barómetro: 1021 hPa
Clouds: Muy nuboso
Visibility: 10 km
Cloud details: Parcialmente nuboso 427 m
Parcialmente nuboso 1158 m
Muy nuboso 1402 m
2021/09/25 21:30 LEVD 252130Z AUTO 23006KT 200V260 9999 SCT014 SCT038 BKN046 13/12 Q1021
LESA - Salamanca (civ/M, Spain
Distance from station: ONO 349km
Actualización: Sat, 25-Sep-2021 11:30pm CEST
Muy nuboso
Muy nuboso
 Viento del varies
Viento: varies 4 km/h
Temperatura: 14°C
Rocío: 13°C
Humedad: 94%
Barómetro: 1021 hPa
Clouds: Muy nuboso
Visibility: 10 km
Cloud details: Muy nuboso 610 m
Muy nuboso 884 m
Muy nuboso 1341 m
2021/09/25 21:30 LESA 252130Z AUTO VRB02KT 9999 BKN020 BKN029 BKN044 14/13 Q1021
 
LEXJ - Santander/Paraya, Spain
Distance from station: NNO 247km
Actualización: Sat, 25-Sep-2021 11:30pm CEST
Despejado
Despejado
 Viento del OSO
Viento: OSO 6 km/h
Temperatura: 16°C
Rocío: 15°C
Humedad: 94%
Barómetro: 1016 hPa
Resumen: Despejado
Visibility: greater than 10 km
2021/09/25 21:30 LEXJ 252130Z AUTO 24003KT CAVOK 16/15 Q1016
LEAS - Asturias/Aviles, Spain
Distance from station: NO 214km
Actualización: Sat, 25-Sep-2021 11:30pm CEST
Parcialmente nuboso
Parcialmente nuboso
 Viento del OSO
Viento: OSO 11 km/h
Temperatura: 16°C
Rocío: 15°C
Humedad: 94%
Barómetro: 1017 hPa
Clouds: Parcialmente nuboso
Visibility: 10 km
Cloud details: Parcialmente nuboso 1280 m
Parcialmente nuboso 2560 m
2021/09/25 21:30 LEAS 252130Z 25006KT 9999 SCT042 SCT084 16/15 Q1017 NOSIG
 
LECO - La Coruna/Alvedr, Spain
Distance from station: ONO 222km
Actualización: Sat, 25-Sep-2021 11:30pm CEST
Few Clouds
Few Clouds
 Viento del SSO
Viento: SSO 11 km/h
Temperatura: 18°C
Rocío: 17°C
Humedad: 94%
Barómetro: 1017 hPa
Clouds: Few Clouds
Visibility: 10 km
Cloud details: Few Clouds 1036 m
2021/09/25 21:30 LECO 252130Z 21006KT 190V250 9999 FEW034 18/17 Q1017 NOSIG
LEVX - Vigo/Peinador, Spain
Distance from station: O 214km
Actualización: Sat, 25-Sep-2021 11:30pm CEST
Muy nuboso
Muy nuboso
 Viento del SSO
Viento: SSO 9 km/h
Temperatura: 16°C
Rocío: 16°C
Humedad: 100%
Barómetro: 1019 hPa
Clouds: Muy nuboso
Visibility: 10 km
Cloud details: Parcialmente nuboso 518 m
Muy nuboso 671 m
2021/09/25 21:30 LEVX 252130Z 20005KT 9999 SCT017 BKN022 16/16 Q1019 NOSIG